Terminal Aerodrome Forecast
Issued by NWS Columbia, SC

Home | Current Version | Previous Version | Text Only | Print | Product List | Glossary On
Versions: 1 2 3 4 5 6 7 8 9 10 11 12 13 14 15 16 17 18 19 20 21 22 23 24 25 26 27 28 29 30 31 32 33 34 35 36 37 38 39 40 41 42 43 44 45 46 47
000
FTUS42 KCAE 261200 AAA
TAFAGS
TAF AMD
KAGS 261235Z 2613/2712 00000KT 3SM BR BKN003
     FM261400 VRB03KT P6SM SKC
     FM261700 24006KT P6SM SCT050
     FM262300 VRB03KT P6SM SKC
     FM271000 00000KT 4SM BR SKC=

USA.gov is the U.S. government's official web portal to all federal, state and local government web resources and services.